Time;durP1;ratioP1;P1;durP2;ratioP2;P2;SDS_P1;SDS_P2;PMS_P1;PMS_P2;Temp;Humidity;BMP_temperature;BMP_pressure;BME280_temperature;BME280_humidity;BME280_pressure;Samples;Min_cycle;Max_cycle;Signal;HPM_P1;HPM_P2
2022/07/21 00:01:39;;;;;;;13.73;5.67;;;26.60;41.30;;;;;;5195794;28;20294;-48
2022/07/21 00:04:10;;;;;;;19.93;4.70;;;26.60;41.50;;;;;;5197491;28;20189;-49
2022/07/21 00:06:41;;;;;;;7.03;4.80;;;26.50;41.50;;;;;;5217170;28;20229;-49
2022/07/21 00:09:12;;;;;;;6.33;5.67;;;26.50;41.60;;;;;;5214749;28;20648;-49
2022/07/21 00:11:43;;;;;;;11.13;5.37;;;26.50;41.80;;;;;;5215798;28;20918;-48
2022/07/21 00:14:14;;;;;;;10.30;5.20;;;26.50;41.70;;;;;;5215296;28;20453;-51
2022/07/21 00:16:44;;;;;;;5.57;4.30;;;26.40;41.80;;;;;;5211326;28;20188;-48
2022/07/21 00:19:15;;;;;;;16.07;4.70;;;26.40;41.90;;;;;;5214155;28;20189;-48
2022/07/21 00:21:46;;;;;;;6.93;5.70;;;26.30;42.00;;;;;;5199866;28;20214;-49
2022/07/21 00:24:16;;;;;;;8.07;5.53;;;26.30;42.20;;;;;;5221230;28;20187;-50
2022/07/21 00:26:47;;;;;;;5.83;5.37;;;26.30;42.30;;;;;;5207653;28;20175;-47
2022/07/21 00:29:17;;;;;;;8.73;5.20;;;26.20;42.30;;;;;;5221577;28;20184;-49
2022/07/21 00:31:48;;;;;;;10.33;5.17;;;26.20;42.30;;;;;;5213657;28;20191;-49
2022/07/21 00:34:19;;;;;;;12.10;5.60;;;26.20;42.40;;;;;;5200031;28;20183;-49
2022/07/21 00:36:49;;;;;;;13.93;4.97;;;26.20;42.50;;;;;;5208593;28;20176;-48
2022/07/21 00:39:20;;;;;;;7.20;5.13;;;26.20;42.50;;;;;;5204341;28;20183;-49
2022/07/21 00:41:51;;;;;;;4.90;4.50;;;26.20;42.60;;;;;;5218509;28;20215;-50
2022/07/21 00:44:27;;;;;;;6.40;5.13;;;26.20;42.70;;;;;;5219595;28;20661;-49
2022/07/21 00:46:57;;;;;;;10.63;5.10;;;26.10;42.70;;;;;;5220402;28;20244;-50
2022/07/21 00:49:28;;;;;;;7.90;5.33;;;26.10;42.70;;;;;;5203879;28;20521;-47
2022/07/21 00:51:59;;;;;;;11.03;5.67;;;26.10;42.70;;;;;;5203736;28;20194;-48
2022/07/21 00:54:29;;;;;;;6.27;5.10;;;26.10;42.70;;;;;;5215262;28;20330;-50
2022/07/21 00:57:00;;;;;;;12.83;5.80;;;26.10;42.70;;;;;;5204672;28;20179;-49
2022/07/21 00:59:31;;;;;;;8.80;4.20;;;26.10;42.80;;;;;;5221578;28;20171;-49
2022/07/21 01:02:01;;;;;;;7.00;4.90;;;26.00;42.80;;;;;;5195815;28;20199;-46
2022/07/21 01:04:32;;;;;;;5.80;4.80;;;26.00;42.90;;;;;;5215477;28;20262;-50
2022/07/21 01:07:04;;;;;;;6.50;5.10;;;26.00;42.90;;;;;;5219683;28;20536;-49
2022/07/21 01:09:35;;;;;;;8.17;5.30;;;26.00;42.90;;;;;;5217281;28;20512;-51
2022/07/21 01:12:07;;;;;;;21.93;5.47;;;26.00;42.90;;;;;;5219956;28;20602;-51
2022/07/21 01:14:38;;;;;;;6.50;4.93;;;26.00;42.80;;;;;;5205519;28;20434;-47
2022/07/21 01:17:09;;;;;;;7.23;5.00;;;26.00;42.90;;;;;;5203739;28;20430;-49
2022/07/21 01:19:40;;;;;;;7.60;4.90;;;25.90;43.10;;;;;;5222246;28;20779;-49
2022/07/21 01:22:11;;;;;;;7.03;5.40;;;25.90;43.20;;;;;;5215731;28;20204;-49
2022/07/21 01:24:42;;;;;;;6.90;5.60;;;25.80;43.20;;;;;;5202249;28;20186;-49
2022/07/21 01:27:12;;;;;;;7.63;5.20;;;25.80;43.30;;;;;;5218451;28;20770;-49
2022/07/21 01:29:43;;;;;;;8.00;6.13;;;25.80;43.40;;;;;;5195589;28;20231;-48
2022/07/21 01:32:13;;;;;;;7.90;5.00;;;25.70;43.50;;;;;;5198918;28;20199;-49
2022/07/21 01:34:44;;;;;;;5.53;5.00;;;25.70;43.60;;;;;;5206573;28;20554;-50
2022/07/21 01:37:19;;;;;;;8.63;6.00;;;25.70;43.70;;;;;;5203313;28;20187;-48
2022/07/21 01:42:40;;;;;;;5.37;5.00;;;25.70;43.80;;;;;;5217533;28;20551;-51
2022/07/21 01:45:11;;;;;;;10.87;5.13;;;25.60;44.00;;;;;;5225430;28;20524;-48
2022/07/21 01:47:41;;;;;;;5.63;4.47;;;25.60;44.00;;;;;;5219922;28;20577;-49
2022/07/21 01:50:12;;;;;;;5.90;5.30;;;25.60;44.10;;;;;;5203726;28;20214;-49
2022/07/21 01:52:43;;;;;;;9.50;5.70;;;25.60;44.20;;;;;;5213795;28;20549;-48
2022/07/21 01:55:13;;;;;;;8.90;5.33;;;25.50;44.30;;;;;;5205125;28;20236;-48
2022/07/21 01:57:44;;;;;;;5.50;5.00;;;25.50;45.00;;;;;;5214142;28;20545;-50
2022/07/21 02:00:15;;;;;;;7.27;5.10;;;25.50;44.60;;;;;;5198922;28;20212;-49
2022/07/21 02:02:45;;;;;;;7.30;6.00;;;25.40;45.10;;;;;;5224032;28;20638;-48
2022/07/21 02:05:16;;;;;;;6.17;5.57;;;25.40;44.70;;;;;;5203233;28;20191;-49
2022/07/21 02:07:47;;;;;;;18.60;6.17;;;25.30;44.80;;;;;;5202161;28;20271;-50
2022/07/21 02:10:17;;;;;;;8.27;5.20;;;25.30;44.90;;;;;;5214589;28;20211;-49
2022/07/21 02:12:48;;;;;;;9.60;5.60;;;25.30;45.10;;;;;;5203140;28;20562;-50
2022/07/21 02:15:18;;;;;;;12.03;5.90;;;25.20;45.30;;;;;;5202769;28;20614;-49
2022/07/21 02:17:49;;;;;;;8.33;5.30;;;25.10;45.30;;;;;;5201519;28;20278;-49
2022/07/21 02:20:20;;;;;;;11.70;6.60;;;25.10;45.50;;;;;;5210320;28;20218;-47
2022/07/21 02:22:51;;;;;;;8.10;5.40;;;25.10;45.60;;;;;;5181383;28;20235;-49
2022/07/21 02:25:21;;;;;;;7.30;5.33;;;25.00;45.80;;;;;;5203582;28;20180;-49
2022/07/21 02:27:52;;;;;;;8.33;5.00;;;25.00;45.80;;;;;;5214661;28;20187;-49
2022/07/21 02:30:23;;;;;;;8.90;5.80;;;25.00;45.90;;;;;;5217203;28;20212;-49
2022/07/21 02:32:54;;;;;;;10.20;5.50;;;25.00;46.10;;;;;;5203635;28;20898;-49
2022/07/21 02:35:24;;;;;;;9.17;5.03;;;24.90;46.00;;;;;;5193113;28;20609;-49
2022/07/21 02:37:55;;;;;;;7.70;5.07;;;24.90;46.10;;;;;;5210768;28;20597;-49
2022/07/21 02:40:26;;;;;;;10.87;5.70;;;24.90;46.20;;;;;;5211368;28;20184;-51
2022/07/21 02:42:57;;;;;;;9.70;6.20;;;24.80;46.30;;;;;;5210870;28;20468;-47
2022/07/21 02:45:27;;;;;;;5.67;5.00;;;24.90;46.50;;;;;;5209230;28;20192;-48
2022/07/21 02:48:03;;;;;;;6.60;5.10;;;24.80;46.50;;;;;;5222233;28;20249;-48
2022/07/21 02:50:37;;;;;;;7.40;5.47;;;24.90;46.60;;;;;;5195396;28;20225;-49
2022/07/21 02:53:20;;;;;;;9.17;5.33;;;24.80;46.70;;;;;;5198888;28;21662;-49
2022/07/21 02:55:55;;;;;;;6.93;5.50;;;24.80;46.70;;;;;;5208058;28;20533;-50
2022/07/21 02:58:27;;;;;;;13.43;6.00;;;24.80;46.90;;;;;;5213992;28;20998;-46
2022/07/21 03:01:04;;;;;;;6.43;5.60;;;24.70;46.90;;;;;;5217843;28;20441;-47
2022/07/21 03:03:36;;;;;;;8.33;5.53;;;24.70;47.00;;;;;;5197363;28;20966;-47
2022/07/21 03:06:07;;;;;;;7.70;5.03;;;24.70;47.10;;;;;;5197658;28;20529;-47
2022/07/21 03:08:37;;;;;;;8.70;5.83;;;24.80;47.00;;;;;;5196770;28;20520;-48
2022/07/21 03:11:08;;;;;;;7.10;5.07;;;24.80;47.00;;;;;;5214246;28;20241;-47
2022/07/21 03:13:39;;;;;;;6.77;5.07;;;24.70;47.00;;;;;;5208955;28;20610;-47
2022/07/21 03:16:09;;;;;;;7.13;4.60;;;24.70;47.10;;;;;;5195599;28;20191;-49
2022/07/21 03:18:41;;;;;;;6.47;5.83;;;24.80;47.10;;;;;;5201053;28;20207;-48
2022/07/21 03:21:11;;;;;;;7.73;5.03;;;24.80;47.20;;;;;;5213081;28;20183;-48
2022/07/21 03:23:45;;;;;;;5.23;4.80;;;24.70;47.20;;;;;;5210538;28;20461;-47
2022/07/21 03:26:16;;;;;;;8.57;4.90;;;24.80;47.20;;;;;;5217208;28;20182;-47
2022/07/21 03:28:47;;;;;;;4.83;4.33;;;24.80;47.20;;;;;;5219688;28;20444;-48
2022/07/21 03:31:17;;;;;;;10.30;4.90;;;24.80;47.30;;;;;;5214757;28;20473;-47
2022/07/21 03:33:48;;;;;;;8.93;5.67;;;24.80;47.20;;;;;;5192192;28;20180;-46
2022/07/21 03:36:19;;;;;;;5.90;4.00;;;24.80;47.20;;;;;;5199332;28;20194;-47
2022/07/21 03:38:50;;;;;;;6.87;4.80;;;24.90;47.40;;;;;;5208847;28;20191;-47
2022/07/21 03:41:21;;;;;;;7.27;4.40;;;24.90;47.30;;;;;;5214358;28;20183;-48
2022/07/21 03:43:52;;;;;;;5.87;4.27;;;24.90;47.40;;;;;;5206320;28;20439;-46
2022/07/21 03:46:23;;;;;;;5.17;4.20;;;24.90;47.30;;;;;;5206005;28;20293;-48
2022/07/21 03:48:53;;;;;;;11.37;4.50;;;24.90;47.20;;;;;;5204796;28;20179;-47
2022/07/21 03:51:24;;;;;;;4.83;4.30;;;24.90;47.20;;;;;;5213553;28;20206;-49
2022/07/21 03:53:54;;;;;;;4.77;4.37;;;24.90;47.10;;;;;;5182150;28;20182;-48
2022/07/21 03:56:25;;;;;;;5.43;3.67;;;24.90;47.00;;;;;;5212951;28;20273;-48
2022/07/21 03:58:55;;;;;;;7.37;4.13;;;24.90;46.80;;;;;;5203800;28;20183;-47
2022/07/21 04:01:26;;;;;;;8.43;4.90;;;24.90;46.90;;;;;;5215005;28;20190;-48
2022/07/21 04:03:57;;;;;;;5.47;4.10;;;24.90;47.00;;;;;;5207204;28;20214;-46
2022/07/21 04:06:27;;;;;;;4.43;4.07;;;24.90;47.00;;;;;;5207540;28;20183;-49
2022/07/21 04:08:58;;;;;;;15.57;4.30;;;24.90;47.10;;;;;;5207408;28;20187;-47
2022/07/21 04:11:30;;;;;;;8.90;3.97;;;25.00;46.90;;;;;;5217606;28;20218;-47
2022/07/21 04:14:00;;;;;;;3.93;3.60;;;25.00;46.80;;;;;;5198079;28;20183;-47
2022/07/21 04:16:31;;;;;;;12.97;4.43;;;25.20;47.00;;;;;;5201480;28;20434;-47
2022/07/21 04:19:02;;;;;;;4.60;4.20;;;25.30;46.50;;;;;;5197815;28;20199;-49
2022/07/21 04:21:32;;;;;;;4.20;3.90;;;25.40;46.40;;;;;;5214875;28;20686;-47
2022/07/21 04:24:03;;;;;;;4.70;3.50;;;25.60;46.20;;;;;;5215111;28;20542;-47
2022/07/21 04:26:34;;;;;;;4.80;4.20;;;25.60;45.90;;;;;;5219759;28;20198;-47
2022/07/21 04:29:04;;;;;;;4.97;4.50;;;25.90;45.70;;;;;;5202484;28;20311;-47
2022/07/21 04:31:35;;;;;;;4.53;3.80;;;25.90;45.50;;;;;;5190396;28;20223;-48
2022/07/21 04:34:05;;;;;;;7.20;4.10;;;25.90;45.70;;;;;;5196247;28;20184;-51
2022/07/21 04:36:36;;;;;;;9.03;4.03;;;25.90;45.80;;;;;;5198263;28;20180;-48
2022/07/21 04:39:06;;;;;;;5.67;4.27;;;25.90;45.90;;;;;;5213947;28;20258;-49
2022/07/21 04:41:37;;;;;;;5.30;3.77;;;26.00;46.00;;;;;;5217569;28;20214;-48
2022/07/21 04:44:08;;;;;;;4.83;4.27;;;25.90;45.90;;;;;;5215843;28;20669;-49
2022/07/21 04:46:40;;;;;;;4.07;3.50;;;25.90;46.00;;;;;;5219566;28;20207;-49
2022/07/21 04:49:10;;;;;;;5.00;4.57;;;25.90;46.00;;;;;;5220496;28;20785;-49
2022/07/21 04:51:41;;;;;;;11.47;4.50;;;25.90;46.00;;;;;;5184721;28;20221;-46
2022/07/21 04:54:13;;;;;;;4.13;3.80;;;26.00;45.90;;;;;;5200279;28;20211;-49
2022/07/21 04:56:44;;;;;;;8.33;4.80;;;26.30;45.80;;;;;;5200343;28;20278;-48
2022/07/21 04:59:15;;;;;;;7.17;4.90;;;26.50;45.20;;;;;;5193502;28;20521;-48
2022/07/21 05:01:45;;;;;;;5.50;4.80;;;26.80;44.40;;;;;;5203188;28;20383;-52
2022/07/21 05:04:16;;;;;;;6.30;4.43;;;27.10;44.00;;;;;;5184480;28;20183;-49
2022/07/21 05:06:47;;;;;;;7.27;5.40;;;27.10;44.20;;;;;;5219112;28;20587;-48
2022/07/21 05:09:17;;;;;;;6.60;5.17;;;27.10;44.20;;;;;;5216129;28;20187;-48
2022/07/21 05:11:48;;;;;;;9.33;5.60;;;27.10;44.40;;;;;;5190768;28;20203;-51
2022/07/21 05:14:19;;;;;;;7.27;5.87;;;27.00;44.70;;;;;;5218961;28;20199;-48
2022/07/21 05:16:49;;;;;;;16.40;8.80;;;26.70;45.20;;;;;;5219962;28;20174;-49
2022/07/21 05:19:20;;;;;;;11.50;7.00;;;26.50;45.90;;;;;;5203335;28;20171;-49
2022/07/21 05:21:50;;;;;;;12.93;9.50;;;26.40;46.40;;;;;;5223335;28;20202;-49
2022/07/21 05:24:21;;;;;;;19.00;10.50;;;26.60;46.60;;;;;;5222681;28;20195;-48
2022/07/21 05:26:52;;;;;;;16.40;10.63;;;26.90;46.90;;;;;;5225361;28;20191;-50
2022/07/21 05:29:23;;;;;;;17.70;10.23;;;27.20;46.80;;;;;;5222143;28;20265;-50
2022/07/21 05:31:53;;;;;;;13.43;9.90;;;28.40;45.20;;;;;;5204831;28;20225;-49
2022/07/21 05:34:24;;;;;;;28.23;10.90;;;29.30;43.50;;;;;;5201118;28;20360;-49
2022/07/21 05:36:55;;;;;;;23.27;10.97;;;30.90;41.30;;;;;;5220931;28;20183;-48
2022/07/21 05:39:25;;;;;;;12.00;9.67;;;32.40;39.10;;;;;;5201278;28;20186;-49
2022/07/21 05:41:56;;;;;;;17.90;11.40;;;33.80;37.00;;;;;;5221220;28;20218;-47
2022/07/21 05:44:26;;;;;;;11.93;9.50;;;34.90;35.10;;;;;;5202681;28;20193;-48
2022/07/21 05:46:57;;;;;;;12.47;10.63;;;35.70;34.00;;;;;;5205045;28;20675;-47
2022/07/21 05:49:28;;;;;;;38.97;10.50;;;36.30;32.80;;;;;;5222307;28;20217;-48
2022/07/21 05:51:58;;;;;;;14.45;11.02;;;36.80;32.10;;;;;;5183785;28;20202;-49
2022/07/21 05:54:29;;;;;;;14.85;10.60;;;36.60;32.00;;;;;;5203307;28;20178;-50
2022/07/21 05:57:02;;;;;;;12.85;9.57;;;36.80;32.40;;;;;;5211668;28;20653;-49
2022/07/21 05:59:33;;;;;;;19.17;12.02;;;37.20;31.40;;;;;;5206669;28;20640;-50
2022/07/21 06:02:03;;;;;;;13.73;10.85;;;37.20;30.80;;;;;;5196157;28;20213;-48
2022/07/21 06:04:34;;;;;;;13.70;10.73;;;37.00;31.50;;;;;;5180823;28;20186;-49
2022/07/21 06:07:05;;;;;;;15.02;11.10;;;36.40;32.40;;;;;;5199959;28;20195;-50
2022/07/21 06:09:35;;;;;;;18.67;12.18;;;36.80;31.90;;;;;;5200460;28;20238;-48
2022/07/21 06:12:06;;;;;;;15.75;10.80;;;36.50;31.80;;;;;;5197641;28;20198;-48
2022/07/21 06:14:36;;;;;;;18.02;12.50;;;36.50;31.70;;;;;;5221258;28;20194;-48
2022/07/21 06:17:07;;;;;;;12.35;11.05;;;36.70;31.60;;;;;;5203679;28;20194;-48
2022/07/21 06:19:38;;;;;;;15.40;11.18;;;36.80;31.80;;;;;;5209371;28;20190;-51
2022/07/21 06:22:08;;;;;;;16.48;11.00;;;36.80;31.30;;;;;;5215701;28;20716;-48
2022/07/21 06:24:39;;;;;;;16.83;11.00;;;37.00;31.20;;;;;;5200042;28;20182;-48
2022/07/21 06:27:10;;;;;;;15.50;11.00;;;37.30;30.70;;;;;;5210908;28;20193;-48
2022/07/21 06:29:40;;;;;;;18.70;10.95;;;37.40;30.10;;;;;;5211922;28;20187;-48
2022/07/21 06:32:11;;;;;;;18.95;11.77;;;38.10;30.30;;;;;;5209714;28;20237;-49
2022/07/21 06:34:41;;;;;;;10.82;9.70;;;38.00;30.10;;;;;;5217912;28;20183;-52
2022/07/21 06:37:12;;;;;;;16.08;11.93;;;38.40;29.80;;;;;;5201384;28;20179;-52
2022/07/21 06:39:42;;;;;;;17.35;11.70;;;39.20;29.00;;;;;;5200220;28;20201;-50
2022/07/21 06:42:13;;;;;;;13.73;10.63;;;39.90;28.70;;;;;;5216794;28;20238;-51
2022/07/21 06:44:43;;;;;;;14.48;11.25;;;40.40;27.90;;;;;;5212851;28;20190;-49
2022/07/21 06:47:14;;;;;;;16.08;10.60;;;39.60;28.20;;;;;;5205566;28;20270;-49
2022/07/21 06:49:45;;;;;;;11.90;10.63;;;39.40;28.40;;;;;;5213974;28;20187;-46
2022/07/21 06:52:15;;;;;;;14.02;9.93;;;39.40;28.50;;;;;;5215841;28;20562;-50
2022/07/21 06:54:46;;;;;;;16.98;10.63;;;39.10;28.80;;;;;;5218036;28;20666;-49
2022/07/21 06:57:17;;;;;;;10.88;9.77;;;39.50;28.50;;;;;;5216970;28;20183;-49
2022/07/21 06:59:47;;;;;;;15.98;10.05;;;39.80;28.20;;;;;;5204687;28;20625;-50
2022/07/21 07:02:18;;;;;;;13.75;9.88;;;40.30;27.90;;;;;;5192244;28;20678;-51
2022/07/21 07:04:49;;;;;;;15.75;10.23;;;40.50;27.60;;;;;;5204635;28;20193;-50
2022/07/21 07:07:19;;;;;;;15.63;10.77;;;40.00;27.70;;;;;;5215180;28;20198;-50
2022/07/21 07:09:50;;;;;;;14.45;10.05;;;40.10;27.80;;;;;;5201172;28;20214;-47
2022/07/21 07:12:20;;;;;;;16.48;9.85;;;40.10;27.60;;;;;;5197349;28;20214;-50
2022/07/21 07:14:51;;;;;;;18.00;11.20;;;40.20;27.70;;;;;;5225490;28;20174;-48
2022/07/21 07:17:22;;;;;;;13.35;9.88;;;40.60;27.10;;;;;;5201749;28;20316;-48
2022/07/21 07:19:52;;;;;;;12.18;9.70;;;40.90;27.10;;;;;;5202768;28;20187;-49
2022/07/21 07:22:23;;;;;;;12.73;9.65;;;40.90;26.70;;;;;;5202743;28;20294;-49
2022/07/21 07:24:53;;;;;;;16.98;10.55;;;40.80;26.80;;;;;;5221820;28;20632;-48
2022/07/21 07:27:24;;;;;;;16.20;11.70;;;40.30;27.40;;;;;;5219502;28;20201;-48
2022/07/21 07:29:55;;;;;;;12.35;9.52;;;39.90;27.50;;;;;;5199290;28;20202;-49
2022/07/21 07:32:26;;;;;;;12.80;9.73;;;40.30;27.70;;;;;;5195529;28;20205;-50
2022/07/21 07:34:56;;;;;;;12.88;8.70;;;40.40;27.50;;;;;;5214446;28;20186;-47
2022/07/21 07:37:27;;;;;;;19.38;9.75;;;41.00;27.10;;;;;;5213197;28;20195;-48
2022/07/21 07:39:59;;;;;;;18.30;10.25;;;41.50;26.60;;;;;;5220236;28;20292;-47
2022/07/21 07:42:29;;;;;;;13.82;9.75;;;41.90;25.90;;;;;;5217614;28;20523;-50
2022/07/21 07:45:00;;;;;;;16.42;9.88;;;41.80;26.10;;;;;;5220135;28;20194;-49
2022/07/21 07:47:31;;;;;;;10.85;8.60;;;41.20;26.50;;;;;;5211094;28;20186;-48
2022/07/21 07:50:03;;;;;;;18.30;10.75;;;41.10;26.70;;;;;;5198553;28;20209;-51
2022/07/21 07:52:35;;;;;;;9.88;7.75;;;40.80;26.70;;;;;;5201036;28;20207;-48
2022/07/21 07:55:10;;;;;;;11.20;8.98;;;41.30;26.60;;;;;;5203239;28;20178;-46
2022/07/21 07:57:42;;;;;;;8.50;7.65;;;41.80;26.30;;;;;;5212242;28;20190;-49
2022/07/21 08:00:16;;;;;;;13.80;8.90;;;42.10;26.00;;;;;;5203689;28;20336;-51
2022/07/21 08:02:47;;;;;;;11.65;7.90;;;42.30;25.70;;;;;;5206515;28;20308;-47
2022/07/21 08:05:17;;;;;;;10.98;8.68;;;41.50;26.20;;;;;;5201060;28;20186;-47
2022/07/21 08:07:48;;;;;;;9.02;8.13;;;40.40;26.80;;;;;;5204121;28;20603;-47
2022/07/21 08:10:19;;;;;;;9.00;8.05;;;38.50;28.70;;;;;;5201694;28;20710;-53
2022/07/21 08:12:49;;;;;;;13.15;8.15;;;36.60;30.50;;;;;;5208324;28;20209;-49
2022/07/21 08:15:20;;;;;;;11.05;8.32;;;35.50;32.80;;;;;;5216542;28;20271;-48
2022/07/21 08:17:50;;;;;;;11.70;7.32;;;35.00;33.50;;;;;;5205549;28;20615;-50
2022/07/21 08:20:21;;;;;;;11.95;8.25;;;34.30;34.50;;;;;;5201453;28;20191;-49
2022/07/21 08:22:52;;;;;;;9.45;8.23;;;33.80;35.40;;;;;;5187646;28;20214;-50
2022/07/21 08:25:22;;;;;;;9.38;7.88;;;33.30;36.40;;;;;;5204200;28;20652;-50
2022/07/21 08:27:53;;;;;;;9.60;8.52;;;33.10;36.80;;;;;;5218636;28;20210;-52
2022/07/21 08:30:24;;;;;;;17.30;7.70;;;32.70;37.50;;;;;;5197427;28;20243;-49
2022/07/21 08:32:55;;;;;;;10.83;7.53;;;32.80;38.10;;;;;;5216336;28;20224;-48
2022/07/21 08:35:26;;;;;;;19.63;8.18;;;33.30;36.80;;;;;;5214152;28;20210;-49
2022/07/21 08:38:00;;;;;;;12.27;7.22;;;33.60;36.30;;;;;;5211138;28;21956;-48
2022/07/21 08:40:34;;;;;;;8.55;7.55;;;34.00;35.90;;;;;;5197179;28;20214;-50
2022/07/21 08:43:08;;;;;;;25.85;7.97;;;34.50;35.30;;;;;;5204230;28;20248;-49
2022/07/21 08:45:40;;;;;;;12.98;7.70;;;34.50;35.20;;;;;;5216923;28;20196;-47
2022/07/21 08:48:10;;;;;;;10.70;6.88;;;34.40;35.30;;;;;;5197628;28;20191;-49
2022/07/21 08:50:41;;;;;;;12.73;8.60;;;34.10;35.80;;;;;;5216780;28;20199;-47
2022/07/21 08:53:12;;;;;;;14.95;7.60;;;34.00;35.50;;;;;;5204664;28;20198;-50
2022/07/21 08:55:42;;;;;;;9.43;7.55;;;33.60;36.00;;;;;;5216779;28;20183;-49
2022/07/21 08:58:14;;;;;;;14.57;8.63;;;33.70;36.70;;;;;;5213037;28;20218;-46
2022/07/21 09:00:47;;;;;;;9.13;7.78;;;33.50;36.60;;;;;;5212133;28;20182;-51
2022/07/21 09:03:21;;;;;;;9.45;7.90;;;33.60;36.60;;;;;;5213899;28;20202;-50
2022/07/21 09:06:11;;;;;;;13.10;8.13;;;33.60;36.80;;;;;;5198980;28;20542;-49
2022/07/21 09:08:46;;;;;;;10.55;7.65;;;33.70;36.60;;;;;;5224645;28;20198;-48
2022/07/21 09:11:23;;;;;;;9.83;7.50;;;33.80;36.60;;;;;;5212612;28;21793;-48
2022/07/21 09:14:09;;;;;;;11.30;6.80;;;33.90;36.40;;;;;;5203973;28;20229;-51
2022/07/21 09:16:43;;;;;;;8.10;7.40;;;33.90;36.10;;;;;;5202770;28;20189;-50
2022/07/21 09:19:18;;;;;;;10.23;7.20;;;33.60;35.80;;;;;;5189391;28;20190;-49
2022/07/21 09:21:51;;;;;;;9.77;7.30;;;33.60;36.50;;;;;;5201589;28;20694;-50
2022/07/21 09:24:31;;;;;;;8.10;6.00;;;33.60;36.00;;;;;;5215593;28;20193;-48
2022/07/21 09:27:09;;;;;;;10.25;7.03;;;33.60;36.60;;;;;;5185451;28;20178;-49
2022/07/21 09:29:49;;;;;;;11.32;7.32;;;33.70;35.80;;;;;;5219823;28;20245;-50
2022/07/21 09:32:26;;;;;;;9.95;6.88;;;33.60;35.90;;;;;;5194704;28;20198;-48
2022/07/21 09:35:06;;;;;;;6.15;5.55;;;33.20;36.60;;;;;;5214863;28;20268;-50
2022/07/21 09:37:38;;;;;;;6.10;5.60;;;32.90;36.70;;;;;;5198926;28;20539;-50
2022/07/21 09:40:12;;;;;;;11.80;6.77;;;33.10;36.60;;;;;;5202806;28;20246;-51
2022/07/21 09:42:48;;;;;;;6.27;5.67;;;33.10;36.40;;;;;;5210097;28;20282;-48
2022/07/21 09:45:19;;;;;;;12.57;7.57;;;33.00;36.90;;;;;;5216599;28;20186;-50
2022/07/21 09:47:50;;;;;;;8.10;6.05;;;33.20;36.90;;;;;;5215809;28;20329;-48
2022/07/21 09:50:21;;;;;;;7.13;5.40;;;33.30;36.70;;;;;;5217611;28;20218;-50
2022/07/21 09:52:54;;;;;;;16.30;6.90;;;33.20;36.50;;;;;;5216699;28;20203;-49
2022/07/21 09:55:25;;;;;;;11.80;6.60;;;33.10;36.50;;;;;;5221184;28;20210;-46
2022/07/21 09:57:58;;;;;;;6.10;5.50;;;32.90;36.60;;;;;;5202874;28;20187;-52
2022/07/21 10:00:29;;;;;;;12.50;6.22;;;32.30;37.10;;;;;;5190071;28;20681;-49
2022/07/21 10:03:04;;;;;;;7.00;5.73;;;32.50;37.80;;;;;;5210456;28;20207;-50
2022/07/21 10:05:35;;;;;;;5.20;4.70;;;32.50;37.70;;;;;;5218774;28;20461;-50
2022/07/21 10:08:06;;;;;;;6.40;5.70;;;32.60;37.30;;;;;;5217398;28;20590;-50
2022/07/21 10:10:37;;;;;;;6.93;4.40;;;32.60;36.60;;;;;;5217511;28;20218;-49
2022/07/21 10:13:08;;;;;;;5.73;5.13;;;32.60;36.60;;;;;;5210939;28;20528;-51
2022/07/21 10:15:39;;;;;;;7.63;5.22;;;32.60;36.80;;;;;;5207056;28;20546;-50
2022/07/21 10:18:12;;;;;;;9.48;4.05;;;32.90;36.60;;;;;;5211266;28;20179;-50
2022/07/21 10:20:48;;;;;;;7.60;5.05;;;33.10;35.90;;;;;;5208414;28;20199;-51
2022/07/21 10:23:33;;;;;;;12.55;6.68;;;33.30;35.70;;;;;;5214904;28;20245;-49
2022/07/21 10:26:05;;;;;;;8.07;5.07;;;33.10;36.30;;;;;;5213515;28;20185;-53
2022/07/21 10:28:36;;;;;;;8.75;5.57;;;33.10;36.50;;;;;;5214955;28;20300;-46
2022/07/21 10:31:19;;;;;;;5.45;4.95;;;32.90;36.70;;;;;;5217879;28;20198;-45
2022/07/21 10:33:49;;;;;;;6.00;4.88;;;32.80;36.80;;;;;;5196574;28;20183;-46
2022/07/21 10:36:36;;;;;;;7.55;4.88;;;32.80;37.00;;;;;;5215437;28;20189;-50
2022/07/21 10:39:06;;;;;;;8.43;5.28;;;32.50;37.10;;;;;;5217674;28;20675;-49
2022/07/21 10:41:43;;;;;;;33.00;7.10;;;32.40;37.40;;;;;;5218892;28;20246;-46
2022/07/21 10:44:30;;;;;;;5.57;4.93;;;32.30;37.40;;;;;;5181614;28;20186;-45
2022/07/21 10:47:12;;;;;;;6.97;6.27;;;31.90;37.40;;;;;;5197758;28;20174;-45
2022/07/21 10:49:56;;;;;;;8.10;6.10;;;31.90;37.90;;;;;;5195541;28;20187;-47
2022/07/21 10:52:39;;;;;;;4.53;4.20;;;31.80;38.30;;;;;;5196679;28;20206;-45
2022/07/21 10:55:10;;;;;;;14.10;5.20;;;31.70;38.30;;;;;;5200793;28;20236;-45
2022/07/21 10:57:46;;;;;;;6.20;5.60;;;31.60;38.20;;;;;;5216523;28;20174;-47
2022/07/21 11:00:33;;;;;;;6.43;5.50;;;31.50;38.50;;;;;;5217758;28;20182;-48
2022/07/21 11:03:16;;;;;;;8.07;5.50;;;31.40;38.80;;;;;;5216071;28;20633;-47
2022/07/21 11:06:14;;;;;;;9.47;5.80;;;31.30;39.60;;;;;;5203585;28;20557;-46
2022/07/21 11:08:46;;;;;;;22.57;10.33;;;31.60;38.90;;;;;;5212399;28;20215;-45
2022/07/21 11:11:25;;;;;;;8.33;5.53;;;31.70;38.70;;;;;;5194648;28;20643;-47
2022/07/21 11:14:20;;;;;;;9.40;7.30;;;31.70;38.50;;;;;;5197303;28;20444;-46
2022/07/21 11:16:54;;;;;;;8.70;5.70;;;31.50;38.80;;;;;;5219233;28;20264;-47
2022/07/21 11:19:40;;;;;;;5.37;4.43;;;31.30;39.20;;;;;;5212583;28;20185;-53
2022/07/21 11:22:21;;;;;;;6.00;4.30;;;31.20;40.00;;;;;;5207671;28;20207;-46
2022/07/21 11:24:57;;;;;;;7.40;4.13;;;31.30;39.90;;;;;;5203857;28;20174;-45
2022/07/21 11:27:36;;;;;;;7.80;4.40;;;31.30;39.30;;;;;;5218381;28;20654;-46
2022/07/21 11:30:09;;;;;;;8.50;4.37;;;31.30;38.80;;;;;;5211819;28;20230;-47
2022/07/21 11:32:46;;;;;;;9.17;4.60;;;31.40;39.20;;;;;;5209669;28;20713;-46
2022/07/21 11:35:16;;;;;;;8.03;6.43;;;31.50;38.70;;;;;;5216366;28;20223;-45
2022/07/21 11:37:47;;;;;;;11.50;8.60;;;31.50;39.00;;;;;;5216180;28;20187;-46
2022/07/21 11:40:19;;;;;;;5.87;4.67;;;31.60;38.60;;;;;;5201624;28;20178;-46
2022/07/21 11:42:53;;;;;;;12.20;4.17;;;31.60;38.70;;;;;;5201780;28;20220;-49
2022/07/21 11:45:28;;;;;;;8.77;4.10;;;31.50;38.60;;;;;;5205720;28;20182;-47
2022/07/21 11:47:58;;;;;;;10.93;4.70;;;31.50;38.70;;;;;;5202432;28;20201;-45
2022/07/21 11:50:30;;;;;;;8.47;4.63;;;31.40;39.00;;;;;;5219781;28;21683;-44
2022/07/21 11:53:02;;;;;;;10.80;4.50;;;31.40;39.30;;;;;;5200436;28;20261;-49
2022/07/21 11:55:33;;;;;;;4.47;3.60;;;31.30;39.10;;;;;;5190379;28;20178;-46
2022/07/21 11:58:03;;;;;;;10.13;6.30;;;31.10;39.50;;;;;;5215921;28;20235;-44
2022/07/21 12:00:34;;;;;;;5.57;4.20;;;31.20;39.80;;;;;;5202463;28;20189;-46
2022/07/21 12:03:06;;;;;;;6.30;4.37;;;31.10;39.40;;;;;;5195921;28;20232;-45
2022/07/21 12:05:39;;;;;;;10.30;4.57;;;31.00;39.70;;;;;;5221636;28;20206;-46
2022/07/21 12:08:09;;;;;;;13.63;6.60;;;31.00;40.00;;;;;;5216143;28;20953;-45
2022/07/21 12:10:40;;;;;;;9.13;5.77;;;30.70;40.20;;;;;;5210357;28;20210;-46
2022/07/21 12:13:11;;;;;;;6.40;4.20;;;30.50;40.70;;;;;;5197150;28;20252;-48
2022/07/21 12:15:41;;;;;;;3.97;3.67;;;30.50;41.00;;;;;;5212068;28;20179;-48
2022/07/21 12:18:26;;;;;;;4.17;3.83;;;30.30;40.80;;;;;;5210879;28;20175;-49
2022/07/21 12:21:05;;;;;;;20.37;5.00;;;30.10;41.70;;;;;;5209977;28;20175;-47
2022/07/21 12:23:36;;;;;;;9.97;5.00;;;29.90;41.90;;;;;;5196585;28;20454;-47
2022/07/21 12:26:20;;;;;;;9.23;4.83;;;29.50;42.50;;;;;;5208609;28;20436;-48
2022/07/21 12:28:56;;;;;;;9.43;5.10;;;29.20;43.30;;;;;;5214827;28;20593;-48
2022/07/21 12:31:26;;;;;;;6.50;4.60;;;29.00;44.20;;;;;;5219753;28;20518;-48
2022/07/21 12:34:09;;;;;;;4.33;3.90;;;28.80;43.90;;;;;;5197992;28;20421;-47
2022/07/21 12:36:42;;;;;;;8.53;5.50;;;28.60;44.10;;;;;;5211886;28;20262;-48
2022/07/21 12:42:35;;;;;;;4.73;4.33;;;28.50;44.80;;;;;;5216831;28;21168;-48
2022/07/21 12:45:17;;;;;;;6.23;4.30;;;28.40;44.90;;;;;;5218888;28;20494;-47
2022/07/21 12:48:11;;;;;;;10.27;4.67;;;28.40;45.00;;;;;;5201777;28;20682;-47
2022/07/21 12:50:42;;;;;;;4.10;3.70;;;28.50;45.60;;;;;;5216644;28;20454;-47
2022/07/21 12:53:13;;;;;;;5.23;4.83;;;28.60;46.00;;;;;;5201671;28;20449;-47
2022/07/21 12:55:44;;;;;;;12.80;6.80;;;28.80;46.00;;;;;;5214418;28;20733;-48
2022/07/21 12:58:14;;;;;;;6.97;4.33;;;29.00;45.70;;;;;;5218813;28;20183;-48
2022/07/21 13:00:45;;;;;;;9.43;4.60;;;29.10;45.40;;;;;;5195752;28;20214;-48
2022/07/21 13:03:15;;;;;;;6.90;4.70;;;29.10;45.40;;;;;;5196511;28;20206;-47
2022/07/21 13:05:46;;;;;;;6.30;3.90;;;29.10;45.80;;;;;;5202020;28;20191;-48
2022/07/21 13:08:17;;;;;;;7.17;3.77;;;29.00;46.00;;;;;;5198810;28;20233;-47
2022/07/21 13:10:47;;;;;;;4.30;3.80;;;29.20;46.30;;;;;;5213669;28;20623;-47
2022/07/21 13:13:18;;;;;;;4.73;4.23;;;29.10;46.90;;;;;;5196712;28;20226;-49